• Join FlightAware (Why Join?)
  • Login
  • US Flag 
03:03AM EDT


 

Airport Tracker/Info


-or-


 

Live Flight TrackerFlight Track Log ✈ FLG3861 ✈ 18-Sep-2013 ✈ KDTW - KBGM

Flight Track Log - Related Links

Times and Time Zones

All times are in EDT time to prevent confusion due to time zone crossing. See the FLG3861 flight status page for this flight to view local times or setup timezone preferences in your user account.

Time Position Orientation Groundspeed Altitude Reporting Facility
EDT Latitude Longitude Course Direction KTS MPH feet Rate Location/Type
09:43PM 42.1881 -83.3561 178° South 168 193 1,400  Level Cleveland Center
09:44PM 42.1256 -83.3531 178° South 204 235 3,800 1,680 Climbing Cleveland Center
09:45PM 42.0886 -83.3483 175° South 208 239 4,700 1,680 Climbing Cleveland Center
09:45PM 42.0647 -83.3247 144° Southeast 288 331 5,500 2,640 Climbing Cleveland Center
09:46PM 42.0372 -83.2478 116° Southeast 284 327 7,700 2,220 Climbing Cleveland Center
09:47PM 42.0450 -83.1658 83° East 298 343 9,400 1,560 Climbing Cleveland Center
09:48PM 42.0914 -83.0686 57° Northeast 313 360 10,800 1,440 Climbing Cleveland Center
09:49PM 42.1522 -82.9328 59° Northeast 354 407 12,400 1,500 Climbing Cleveland Center
09:50PM 42.2058 -82.8139 59° Northeast 371 427 13,900 1,440 Climbing Cleveland Center
09:51PM 42.2614 -82.6925 58° Northeast 381 438 15,400 1,320 Climbing Cleveland Center
09:52PM 42.3156 -82.5697 59° Northeast 384 442 16,700 1,140 Climbing Cleveland Center
09:53PM 42.3667 -82.4419 62° Northeast 386 444 17,800 1,080 Climbing Cleveland Center
09:54PM 42.3608 -82.2911 93° East 397 457 19,000 1,080 Climbing Cleveland Center
09:55PM 42.3544 -82.1219 93° East 401 461 20,100 1,020 Climbing Cleveland Center
09:56PM 42.3475 -81.9672 93° East 405 466 21,100 900 Climbing Cleveland Center
09:57PM 42.3406 -81.8125 93° East 407 468 22,000 780 Climbing Cleveland Center
09:58PM 42.3331 -81.6542 94° East 416 479 22,700 660 Climbing Cleveland Center
09:59PM 42.3258 -81.4931 93° East 422 486 23,400 660 Climbing Cleveland Center
10:00PM 42.3178 -81.3300 94° East 429 494 24,100 660 Climbing Cleveland Center
10:01PM 42.3097 -81.1669 94° East 431 496 24,800 660 Climbing Cleveland Center
10:02PM 42.3019 -81.0031 94° East 432 497 25,500 660 Climbing Cleveland Center
10:03PM 42.2931 -80.8397 94° East 432 497 26,200 720 Climbing Cleveland Center
10:04PM 42.2842 -80.6772 94° East 430 495 27,000 360 Climbing Cleveland Center
10:05PM 42.2753 -80.5128 94° East 433 498 27,000  Level Cleveland Center
10:06PM 42.2658 -80.3414 94° East 451 519 27,000  Level Cleveland Center
10:07PM 42.2558 -80.1667 94° East 460 529 27,000  Level Cleveland Center
10:08PM 42.2442 -79.9739 95° East 466 536 27,000  Level Cleveland Center
10:09PM 42.2344 -79.7986 94° East 470 541 27,000  Level Cleveland Center
10:10PM 42.2222 -79.6236 95° East 472 543 27,000  Level Cleveland Center
10:11PM 42.2103 -79.4483 95° East 473 544 27,000  Level Cleveland Center
10:12PM 42.1986 -79.2739 95° East 471 542 27,000  Level Cleveland Center
10:13PM 42.1900 -79.0972 94° East 473 544 27,000  Level Cleveland Center
10:14PM 42.1922 -78.8989 89° East 471 542 27,000  Level Cleveland Center
10:15PM 42.1961 -78.7247 88° East 468 539 27,000  Level Cleveland Center
10:16PM 42.1994 -78.5486 88° East 471 542 27,000  Level Cleveland Center
10:17PM 42.2017 -78.3719 89° East 473 544 27,000  Level Cleveland Center
10:18PM 42.2044 -78.1633 89° East 470 541 27,000 -300 Level Cleveland Center
10:19PM 42.2067 -77.9881 89° East 470 541 26,400 -840 Descending Cleveland Center
10:20PM 42.2078 -77.8089 89° East 481 554 25,400 -1,020 Descending Cleveland Center
10:21PM 42.2097 -77.6292 89° East 485 558 24,400 -1,080 Descending Cleveland Center
10:22PM 42.2106 -77.4547 90° East 475 547 23,200 -1,320 Descending Cleveland Center
10:24PM 42.2111 -77.2828 90° East 466 536 21,800 -1,380 Descending Cleveland Center
10:25PM 42.2119 -77.1142 90° East 456 525 20,400 -1,620 Descending Cleveland Center
10:26PM 42.2106 -76.9078 90° East 451 519 18,500 -2,340 Descending New York Center
10:27PM 42.2111 -76.7603 90° East 426 490 15,700 -2,940 Descending Cleveland Center
10:28PM 42.2114 -76.6161 90° East 392 451 12,600 -2,700 Descending Cleveland Center
10:29PM 42.2117 -76.4919 90° East 334 384 10,200 -2,340 Descending Cleveland Center
10:30PM 42.2111 -76.3903 90° East 285 328 7,900 -2,460 Descending Cleveland Center
10:31PM 42.2092 -76.2944 92° East 284 327 5,400 -2,400 Descending New York Center
10:32PM 42.2278 -76.2064 74° East 255 293 3,300 -1,200 Descending New York Center
10:33PM 42.2522 -76.1272 67° East 234 269 3,100 -240 Descending New York Center
10:34PM 42.2697 -76.0614 70° East 210 242 2,900 -360 Descending New York Center
10:35PM 42.2489 -76.0150 121° Southeast 145 167 2,400 -480 Descending New York Center
10:36PM 42.2367 -75.9608 107° East 137 158 2,000 -420 Descending New York Center